CheckWX is a tool to help pilots better visualize weather data.  It is not intended as a substitute for an official pre-flight weather briefing.

21:02:40 UTC

KLMO METAR
Vance Brand Airport
Longmont, Colorado, USA
Current

8 mins ago

KLMO 232055Z AUTO 22007KT 10SM CLR 06/M09 A2988 RMK AO2 T00631092
Observed
Feb-23 @ 20:55 UTC
Wind
  • 220° at 7 KTS
Visibility
10 SM
Flight Rules
VFR
Cloud Levels
  • Clear skies
Temperature
C / 43°F
Dewpoint
-9°C / 16°F
Humidity
34%
Altimeter
29.88" Hg
Pressure
1011.82 hPa
Previous

28 mins ago

KLMO 232035Z AUTO 18008KT 10SM CLR 05/M06 A2988 RMK AO2 T00461065
Observed
Feb-23 @ 20:35 UTC
Wind
  • 180° at 8 KTS
Visibility
10 SM
Flight Rules
VFR
Cloud Levels
  • Clear skies
Temperature
C / 41°F
Dewpoint
-7°C / 19°F
Humidity
42%
Altimeter
29.88" Hg
Pressure
1011.82 hPa
Previous

48 mins ago

KLMO 232015Z AUTO 16009KT 10SM CLR 04/M06 A2987 RMK AO2 T00391065
Observed
Feb-23 @ 20:15 UTC
Wind
  • 160° at 9 KTS
Visibility
10 SM
Flight Rules
VFR
Cloud Levels
  • Clear skies
Temperature
C / 39°F
Dewpoint
-7°C / 19°F
Humidity
45%
Altimeter
29.87" Hg
Pressure
1011.52 hPa